createdAt,value
2022-12-19T00:00:34.217Z,5.10
2022-12-19T00:03:19.758Z,5.40
2022-12-19T00:06:05.365Z,5.40
2022-12-19T00:08:52.885Z,5.20
2022-12-19T00:11:38.900Z,5.50
2022-12-19T00:14:24.423Z,5.20
2022-12-19T00:17:09.925Z,5.30
2022-12-19T00:19:57.077Z,5.90
2022-12-19T00:22:42.416Z,5.70
2022-12-19T00:25:28.292Z,5.80
2022-12-19T00:28:14.887Z,5.80
2022-12-19T00:31:03.125Z,6.20
2022-12-19T00:33:49.156Z,6.50
2022-12-19T00:36:35.062Z,6.50
2022-12-19T00:39:20.902Z,5.90
2022-12-19T00:42:06.472Z,6.30
2022-12-19T00:44:52.290Z,6.40
2022-12-19T00:47:37.828Z,6.80
2022-12-19T00:50:24.364Z,7.10
2022-12-19T00:53:09.910Z,7.20
2022-12-19T00:55:55.687Z,7.20
2022-12-19T00:58:46.538Z,7.20
2022-12-19T01:01:35.556Z,7.30
2022-12-19T01:04:29.476Z,7.30
2022-12-19T01:07:15.808Z,7.40
2022-12-19T01:10:01.390Z,7.40
2022-12-19T01:12:47.286Z,7.40
2022-12-19T01:15:32.747Z,7.40
2022-12-19T01:18:18.324Z,7.30
2022-12-19T01:21:08.770Z,7.30
2022-12-19T01:23:54.771Z,7.50
2022-12-19T01:26:40.520Z,7.60
2022-12-19T01:29:26.224Z,7.80
2022-12-19T01:32:13.104Z,7.70
2022-12-19T01:34:58.391Z,7.60
2022-12-19T01:37:43.955Z,7.70
2022-12-19T01:40:29.482Z,7.70
2022-12-19T01:43:17.571Z,7.70
2022-12-19T01:46:06.193Z,7.50
2022-12-19T01:48:52.574Z,7.10
2022-12-19T01:51:43.570Z,6.80
2022-12-19T01:54:37.284Z,6.40
2022-12-19T01:57:23.354Z,6.20
2022-12-19T02:00:10.008Z,5.70
2022-12-19T02:03:04.917Z,6.00
2022-12-19T02:05:54.950Z,6.20
2022-12-19T02:08:43.001Z,6.00
2022-12-19T02:11:29.781Z,6.10
2022-12-19T02:14:16.553Z,6.60
2022-12-19T02:17:11.572Z,6.90
2022-12-19T02:20:32.715Z,6.90
2022-12-19T02:23:36.319Z,6.80
2022-12-19T02:27:04.472Z,6.90
2022-12-19T02:30:07.982Z,7.10
2022-12-19T02:33:16.021Z,7.10
2022-12-19T02:36:12.503Z,6.80
2022-12-19T02:39:03.458Z,7.00
2022-12-19T02:41:57.871Z,6.80
2022-12-19T02:44:48.903Z,6.30
2022-12-19T02:47:36.271Z,5.80
2022-12-19T02:50:23.231Z,6.20
2022-12-19T02:53:15.493Z,6.20
2022-12-19T02:56:25.830Z,5.90
2022-12-19T02:59:19.190Z,5.90
2022-12-19T03:02:25.038Z,6.00
2022-12-19T03:05:34.203Z,5.90
2022-12-19T03:08:53.715Z,6.10
2022-12-19T03:11:42.335Z,6.30
2022-12-19T03:14:31.169Z,6.50
2022-12-19T03:17:19.947Z,6.60
2022-12-19T03:20:10.290Z,6.40
2022-12-19T03:22:56.521Z,6.10
2022-12-19T03:25:48.686Z,6.30
2022-12-19T03:28:45.728Z,6.40
2022-12-19T03:31:33.671Z,6.20
2022-12-19T03:34:26.035Z,5.80
2022-12-19T03:37:16.777Z,6.30
2022-12-19T03:40:10.864Z,6.10
2022-12-19T03:43:12.016Z,5.90
2022-12-19T03:46:02.323Z,5.60
2022-12-19T03:48:52.467Z,6.20
2022-12-19T03:51:48.104Z,6.70
2022-12-19T03:54:39.907Z,6.90
2022-12-19T03:57:40.225Z,7.10
2022-12-19T04:00:27.661Z,6.80
2022-12-19T04:03:15.702Z,6.20
2022-12-19T04:06:03.521Z,6.40
2022-12-19T04:08:50.038Z,6.00
2022-12-19T04:11:39.728Z,6.30
2022-12-19T04:14:35.292Z,6.50
2022-12-19T04:17:35.518Z,6.70
2022-12-19T04:20:25.545Z,6.50
2022-12-19T04:23:21.265Z,6.50
2022-12-19T04:26:08.633Z,6.00
2022-12-19T04:28:58.064Z,6.00
2022-12-19T04:31:45.747Z,6.40
2022-12-19T04:34:31.811Z,6.80
2022-12-19T04:37:17.600Z,6.90
2022-12-19T04:40:04.391Z,7.10
2022-12-19T04:42:50.248Z,6.60
2022-12-19T04:45:35.956Z,6.60
2022-12-19T04:48:22.143Z,6.30
2022-12-19T04:51:07.934Z,6.70
2022-12-19T04:53:53.716Z,7.10
2022-12-19T04:56:39.079Z,7.40
2022-12-19T04:59:24.728Z,7.40
2022-12-19T05:02:10.336Z,7.10
2022-12-19T05:04:55.932Z,6.70
2022-12-19T05:07:41.473Z,7.00
2022-12-19T05:10:26.976Z,7.30
2022-12-19T05:13:12.330Z,7.50
2022-12-19T05:15:59.735Z,7.40
2022-12-19T05:18:45.970Z,7.30
2022-12-19T05:21:31.533Z,7.30
2022-12-19T05:24:17.361Z,7.20
2022-12-19T05:27:03.569Z,7.20
2022-12-19T05:29:49.076Z,7.30
2022-12-19T05:32:34.870Z,7.50
2022-12-19T05:35:20.636Z,7.60
2022-12-19T05:38:06.186Z,7.50
2022-12-19T05:40:51.945Z,7.50
2022-12-19T05:43:37.319Z,7.50
2022-12-19T05:46:24.123Z,7.50
2022-12-19T05:49:09.825Z,7.60
2022-12-19T05:51:55.294Z,7.50
2022-12-19T05:54:40.966Z,7.50
2022-12-19T05:57:26.393Z,7.60
2022-12-19T06:00:12.653Z,7.60
2022-12-19T06:02:58.491Z,7.70
2022-12-19T06:05:44.431Z,7.70
2022-12-19T06:08:30.094Z,7.70
2022-12-19T06:11:15.542Z,7.70
2022-12-19T06:14:01.265Z,7.40
2022-12-19T06:16:47.140Z,7.50
2022-12-19T06:19:32.657Z,7.50
2022-12-19T06:22:19.629Z,7.70
2022-12-19T06:25:05.824Z,7.80
2022-12-19T06:27:51.641Z,7.80
2022-12-19T06:30:37.492Z,7.80
2022-12-19T06:33:23.908Z,7.30
2022-12-19T06:36:25.363Z,6.40
2022-12-19T06:39:14.697Z,6.80
2022-12-19T06:42:18.647Z,7.40
2022-12-19T06:45:04.689Z,7.50
2022-12-19T06:47:50.863Z,7.60
2022-12-19T06:50:36.567Z,7.10
2022-12-19T06:53:22.456Z,6.80
2022-12-19T06:56:08.763Z,6.50
2022-12-19T06:58:55.126Z,6.60
2022-12-19T07:02:26.115Z,7.20
2022-12-19T07:05:12.673Z,7.10
2022-12-19T07:07:58.600Z,6.60
2022-12-19T07:10:44.726Z,6.40
2022-12-19T07:13:31.144Z,6.30
2022-12-19T07:16:17.263Z,6.10
2022-12-19T07:19:02.926Z,6.50
2022-12-19T07:21:48.980Z,7.00
2022-12-19T07:24:36.251Z,7.50
2022-12-19T07:27:23.129Z,7.50
2022-12-19T07:30:09.455Z,7.60
2022-12-19T07:32:55.002Z,7.70
2022-12-19T07:35:43.094Z,7.10
2022-12-19T07:38:28.571Z,7.00
2022-12-19T07:41:13.931Z,6.50
2022-12-19T07:44:00.110Z,6.60
2022-12-19T07:46:45.761Z,6.40
2022-12-19T07:49:31.753Z,6.50
2022-12-19T07:52:17.562Z,6.70
2022-12-19T07:55:04.842Z,6.50
2022-12-19T07:57:50.819Z,6.50
2022-12-19T08:00:37.465Z,6.80
2022-12-19T08:03:24.063Z,6.50
2022-12-19T08:06:11.201Z,6.70
2022-12-19T08:08:57.247Z,7.20
2022-12-19T08:11:43.147Z,7.80
2022-12-19T08:14:28.655Z,7.50
2022-12-19T08:17:20.785Z,7.20
2022-12-19T08:20:08.658Z,7.60
2022-12-19T08:22:55.345Z,7.70
2022-12-19T08:25:42.480Z,8.00
2022-12-19T08:28:28.252Z,7.80
2022-12-19T08:31:19.530Z,7.80
2022-12-19T08:34:05.326Z,7.50
2022-12-19T08:36:51.114Z,7.10
2022-12-19T08:39:37.190Z,7.00
2022-12-19T08:42:23.077Z,6.90
2022-12-19T08:45:09.147Z,7.30
2022-12-19T08:47:55.243Z,7.80
2022-12-19T08:50:40.755Z,7.70
2022-12-19T08:53:28.258Z,7.90
2022-12-19T08:56:16.716Z,7.90
2022-12-19T08:59:03.346Z,7.80
2022-12-19T09:01:49.618Z,7.30
2022-12-19T09:05:56.712Z,7.60
2022-12-19T09:07:42.514Z,7.80
2022-12-19T09:10:28.133Z,8.00
2022-12-19T09:13:13.722Z,8.00
2022-12-19T09:16:27.767Z,7.80
2022-12-19T09:19:15.644Z,7.80
2022-12-19T09:22:01.247Z,8.10
2022-12-19T09:24:46.692Z,8.30
2022-12-19T09:27:53.738Z,8.50
2022-12-19T09:30:39.466Z,8.70
2022-12-19T09:33:25.668Z,8.80
2022-12-19T09:36:16.641Z,8.50
2022-12-19T09:39:02.170Z,8.60
2022-12-19T09:42:06.134Z,8.70
2022-12-19T09:45:03.981Z,8.80
2022-12-19T09:47:57.670Z,8.70
2022-12-19T09:51:16.956Z,8.40
2022-12-19T09:54:14.018Z,8.60
2022-12-19T09:57:05.208Z,8.40
2022-12-19T09:59:59.462Z,8.60
2022-12-19T10:02:59.893Z,8.10
2022-12-19T10:07:09.487Z,7.70
2022-12-19T10:10:10.219Z,7.80
2022-12-19T10:12:51.352Z,8.20
2022-12-19T10:15:56.265Z,8.30
2022-12-19T10:19:00.516Z,7.80
2022-12-19T10:22:16.884Z,7.60
2022-12-19T10:25:09.405Z,8.00
2022-12-19T10:28:26.805Z,8.20
2022-12-19T10:31:23.291Z,8.30
2022-12-19T10:34:43.719Z,8.10
2022-12-19T10:37:43.849Z,8.30
2022-12-19T10:40:38.212Z,8.10
2022-12-19T10:43:40.815Z,8.50
2022-12-19T10:46:41.164Z,8.70
2022-12-19T10:49:28.215Z,8.80
2022-12-19T10:52:13.631Z,8.60
2022-12-19T10:54:59.443Z,8.40
2022-12-19T10:57:45.008Z,8.20
2022-12-19T11:00:33.202Z,8.10
2022-12-19T11:03:20.118Z,8.70
2022-12-19T11:06:07.030Z,8.90
2022-12-19T11:08:52.642Z,9.10
2022-12-19T11:15:33.039Z,9.20
2022-12-19T11:19:13.668Z,8.80
2022-12-19T11:26:47.468Z,8.50
2022-12-19T11:29:15.143Z,8.40
2022-12-19T11:29:46.780Z,8.90
2022-12-19T11:30:47.662Z,8.60
2022-12-19T11:34:24.304Z,8.70
2022-12-19T11:37:27.467Z,8.50
2022-12-19T11:40:33.952Z,8.60
2022-12-19T11:43:44.427Z,8.50
2022-12-19T11:46:53.863Z,8.70
2022-12-19T11:49:46.142Z,8.50
2022-12-19T11:53:09.334Z,8.50
2022-12-19T11:56:16.566Z,8.30
2022-12-19T11:59:21.683Z,8.10
2022-12-19T12:02:22.628Z,8.60
2022-12-19T12:05:17.163Z,8.80
2022-12-19T12:10:28.625Z,8.90
2022-12-19T12:21:00.210Z,8.70
2022-12-19T12:25:05.409Z,9.00
2022-12-19T12:31:05.750Z,8.80
2022-12-19T12:31:21.672Z,8.70
2022-12-19T12:31:41.759Z,8.80
2022-12-19T12:31:51.875Z,8.90
2022-12-19T12:35:11.071Z,8.90
2022-12-19T12:37:54.018Z,8.50
2022-12-19T12:39:16.058Z,8.30
2022-12-19T12:42:22.491Z,8.80
2022-12-19T12:45:22.260Z,8.60
2022-12-19T12:48:30.115Z,8.60
2022-12-19T12:51:18.526Z,8.90
2022-12-19T12:54:07.981Z,8.90
2022-12-19T12:56:55.473Z,8.60
2022-12-19T12:59:46.456Z,8.60
2022-12-19T13:02:33.952Z,8.90
2022-12-19T13:06:01.041Z,8.50
2022-12-19T13:08:48.418Z,7.80
2022-12-19T13:12:04.229Z,8.20
2022-12-19T13:14:52.171Z,8.70
2022-12-19T13:17:41.066Z,9.10
2022-12-19T13:20:28.034Z,9.10
2022-12-19T13:23:44.639Z,9.30
2022-12-19T13:26:49.532Z,9.20
2022-12-19T13:30:00.365Z,9.40
2022-12-19T13:32:46.005Z,8.90
2022-12-19T13:36:28.885Z,8.20
2022-12-19T13:39:58.208Z,8.30
2022-12-19T13:42:33.304Z,8.70
2022-12-19T13:45:28.613Z,8.90
2022-12-19T13:48:17.977Z,9.20
2022-12-19T13:51:08.821Z,9.10
2022-12-19T13:53:59.602Z,8.80
2022-12-19T13:56:46.157Z,8.70
2022-12-19T13:59:36.338Z,8.80
2022-12-19T14:02:34.887Z,8.40
2022-12-19T14:06:15.113Z,8.50
2022-12-19T14:08:38.588Z,8.70
2022-12-19T14:11:42.103Z,8.60
2022-12-19T14:14:49.329Z,8.20
2022-12-19T14:17:56.179Z,8.00
2022-12-19T14:22:04.418Z,8.60
2022-12-19T14:24:21.946Z,8.00
2022-12-19T14:28:25.154Z,7.60
2022-12-19T14:30:32.226Z,7.60
2022-12-19T14:33:45.357Z,8.10
2022-12-19T14:36:33.261Z,8.40
2022-12-19T14:39:28.887Z,8.80
2022-12-19T14:43:57.861Z,8.80
2022-12-19T14:54:03.491Z,9.00
2022-12-19T14:54:13.316Z,8.10
2022-12-19T14:54:39.878Z,7.60
2022-12-19T14:59:36.434Z,7.80
2022-12-19T15:02:32.442Z,8.50
2022-12-19T15:05:19.986Z,8.30
2022-12-19T15:08:11.202Z,8.30
2022-12-19T15:11:41.415Z,8.50
2022-12-19T15:14:51.907Z,8.60
2022-12-19T15:17:46.513Z,8.00
2022-12-19T15:20:32.446Z,7.70
2022-12-19T15:23:22.346Z,7.90
2022-12-19T15:26:29.702Z,7.80
2022-12-19T15:29:21.676Z,7.60
2022-12-19T15:32:17.827Z,7.30
2022-12-19T15:35:11.156Z,7.50
2022-12-19T15:37:56.904Z,7.60
2022-12-19T15:40:42.831Z,7.60
2022-12-19T15:44:02.644Z,7.80
2022-12-19T15:46:38.779Z,7.50
2022-12-19T15:49:27.225Z,7.80
2022-12-19T15:52:20.400Z,7.70
2022-12-19T15:55:06.802Z,7.40
2022-12-19T15:57:58.738Z,7.50
2022-12-19T16:00:52.451Z,7.80
2022-12-19T16:03:38.944Z,8.00
2022-12-19T16:06:24.994Z,7.80
2022-12-19T16:09:26.197Z,7.60
2022-12-19T16:12:38.621Z,7.50
2022-12-19T16:15:33.969Z,7.30
2022-12-19T16:18:19.977Z,7.40
2022-12-19T16:21:05.660Z,7.60
2022-12-19T16:23:52.254Z,7.60
2022-12-19T16:26:40.381Z,8.00
2022-12-19T16:29:29.411Z,8.00
2022-12-19T16:32:15.651Z,7.70
2022-12-19T16:35:01.661Z,7.50
2022-12-19T16:37:47.892Z,7.60
2022-12-19T16:40:33.736Z,7.80
2022-12-19T16:43:33.389Z,7.70
2022-12-19T16:46:22.160Z,7.80
2022-12-19T16:49:14.961Z,7.60
2022-12-19T16:52:00.930Z,7.70
2022-12-19T16:54:47.984Z,7.70
2022-12-19T16:57:33.784Z,7.60
2022-12-19T17:00:21.902Z,7.50
2022-12-19T17:03:25.674Z,7.40
2022-12-19T17:06:13.928Z,7.40
2022-12-19T17:08:59.753Z,7.40
2022-12-19T17:12:06.851Z,7.60
2022-12-19T17:14:52.609Z,7.60
2022-12-19T17:17:38.411Z,7.30
2022-12-19T17:20:28.552Z,7.50
2022-12-19T17:23:17.263Z,7.80
2022-12-19T17:26:02.816Z,7.80
2022-12-19T17:28:48.622Z,7.40
2022-12-19T17:31:38.200Z,7.50
2022-12-19T17:34:31.281Z,7.80
2022-12-19T17:37:17.514Z,8.40
2022-12-19T17:40:03.424Z,8.60
2022-12-19T17:42:49.614Z,8.70
2022-12-19T17:45:35.650Z,8.50
2022-12-19T17:48:31.198Z,8.10
2022-12-19T17:51:18.150Z,8.00
2022-12-19T17:54:03.724Z,8.20
2022-12-19T17:56:50.728Z,8.40
2022-12-19T17:59:36.603Z,7.50
2022-12-19T18:02:27.199Z,7.20
2022-12-19T18:05:29.832Z,7.10
2022-12-19T18:08:29.086Z,7.30
2022-12-19T18:11:24.065Z,7.80
2022-12-19T18:14:09.668Z,7.60
2022-12-19T18:16:55.832Z,7.50
2022-12-19T18:19:41.553Z,7.60
2022-12-19T18:22:26.977Z,7.70
2022-12-19T18:25:22.001Z,7.70
2022-12-19T18:28:07.582Z,7.60
2022-12-19T18:31:02.600Z,8.00
2022-12-19T18:33:49.884Z,8.30
2022-12-19T18:36:40.663Z,8.50
2022-12-19T18:39:28.645Z,8.50
2022-12-19T18:42:20.413Z,8.30
2022-12-19T18:45:06.883Z,8.40
2022-12-19T18:47:57.506Z,8.40
2022-12-19T18:50:43.255Z,8.30
2022-12-19T18:53:35.159Z,8.40
2022-12-19T18:56:21.684Z,8.60
2022-12-19T18:59:07.525Z,8.50
2022-12-19T19:01:55.637Z,8.40
2022-12-19T19:04:41.713Z,8.50
2022-12-19T19:07:27.557Z,8.70
2022-12-19T19:10:30.628Z,8.80
2022-12-19T19:13:28.840Z,8.80
2022-12-19T19:16:26.885Z,8.80
2022-12-19T19:19:16.407Z,8.50
2022-12-19T19:22:02.247Z,8.40
2022-12-19T19:24:47.784Z,8.30
2022-12-19T19:27:33.830Z,8.20
2022-12-19T19:30:19.574Z,7.80
2022-12-19T19:33:14.081Z,7.60
2022-12-19T19:36:11.000Z,7.70
2022-12-19T19:38:58.091Z,7.90
2022-12-19T19:41:43.704Z,8.00
2022-12-19T19:44:30.495Z,8.20
2022-12-19T19:47:16.264Z,8.50
2022-12-19T19:50:02.777Z,8.30
2022-12-19T19:52:48.633Z,8.20
2022-12-19T19:55:34.341Z,8.30
2022-12-19T19:58:20.069Z,8.20
2022-12-19T20:01:10.954Z,8.40
2022-12-19T20:03:56.683Z,8.30
2022-12-19T20:06:42.226Z,8.30
2022-12-19T20:09:27.750Z,8.60
2022-12-19T20:12:14.182Z,8.60
2022-12-19T20:14:59.549Z,8.90
2022-12-19T20:17:45.380Z,8.20
2022-12-19T20:20:34.666Z,8.50
2022-12-19T20:23:20.079Z,8.60
2022-12-19T20:26:06.451Z,8.50
2022-12-19T20:28:52.552Z,8.20
2022-12-19T20:31:39.593Z,8.40
2022-12-19T20:34:25.990Z,8.40
2022-12-19T20:37:11.788Z,8.00
2022-12-19T20:39:57.319Z,8.20
2022-12-19T20:42:42.796Z,8.40
2022-12-19T20:45:28.517Z,8.70
2022-12-19T20:48:14.061Z,8.80
2022-12-19T20:51:00.990Z,8.90
2022-12-19T20:53:46.661Z,8.80
2022-12-19T20:56:32.413Z,8.40
2022-12-19T20:59:19.374Z,8.20
2022-12-19T21:02:04.971Z,8.50
2022-12-19T21:04:50.788Z,8.30
2022-12-19T21:07:36.285Z,8.30
2022-12-19T21:10:21.901Z,8.60
2022-12-19T21:13:07.462Z,8.80
2022-12-19T21:15:58.523Z,8.70
2022-12-19T21:18:46.377Z,8.70
2022-12-19T21:21:32.166Z,9.00
2022-12-19T21:24:18.018Z,9.00
2022-12-19T21:27:03.687Z,9.00
2022-12-19T21:29:49.473Z,8.70
2022-12-19T21:32:35.172Z,8.90
2022-12-19T21:35:20.720Z,8.90
2022-12-19T21:38:06.237Z,8.90
2022-12-19T21:40:51.781Z,8.80
2022-12-19T21:43:37.409Z,8.90
2022-12-19T21:46:26.269Z,8.70
2022-12-19T21:49:11.920Z,8.50
2022-12-19T21:51:57.570Z,8.20
2022-12-19T21:54:43.011Z,8.20
2022-12-19T21:57:28.542Z,8.20
2022-12-19T22:00:14.510Z,8.50
2022-12-19T22:03:14.111Z,8.50
2022-12-19T22:06:00.848Z,8.40
2022-12-19T22:08:46.855Z,8.30
2022-12-19T22:11:33.446Z,8.60
2022-12-19T22:14:19.269Z,8.50
2022-12-19T22:17:06.235Z,8.00
2022-12-19T22:19:51.683Z,8.10
2022-12-19T22:22:37.484Z,8.40
2022-12-19T22:25:23.099Z,8.40
2022-12-19T22:28:09.010Z,8.40
2022-12-19T22:30:54.514Z,8.60
2022-12-19T22:33:40.022Z,8.50
2022-12-19T22:36:28.654Z,8.70
2022-12-19T22:39:17.825Z,8.80
2022-12-19T22:42:03.471Z,8.80
2022-12-19T22:44:49.244Z,8.70
2022-12-19T22:47:35.397Z,8.80
2022-12-19T22:50:22.464Z,8.90
2022-12-19T22:53:12.761Z,8.70
2022-12-19T22:56:06.222Z,8.60
2022-12-19T22:58:54.076Z,8.50
2022-12-19T23:01:42.940Z,8.60
2022-12-19T23:04:29.117Z,8.60
2022-12-19T23:07:14.666Z,8.80
2022-12-19T23:10:00.208Z,8.80
2022-12-19T23:12:46.028Z,8.70
2022-12-19T23:15:34.297Z,8.60
2022-12-19T23:18:19.725Z,8.50
2022-12-19T23:21:10.255Z,8.30
2022-12-19T23:23:56.353Z,8.30
2022-12-19T23:26:42.239Z,8.40
2022-12-19T23:29:28.013Z,8.50
2022-12-19T23:32:13.719Z,8.50
2022-12-19T23:34:59.125Z,8.50
2022-12-19T23:37:45.038Z,8.60
2022-12-19T23:40:30.873Z,8.40
2022-12-19T23:43:16.371Z,8.10
2022-12-19T23:46:12.309Z,8.30
2022-12-19T23:48:58.088Z,8.30
2022-12-19T23:51:43.856Z,8.40
2022-12-19T23:54:29.933Z,8.50
2022-12-19T23:57:15.779Z,8.00
